Terminal Aerodrome Forecast
Issued by NWS Louisville, KY

Home | Current Version | Previous Version | Text Only | Print | Product List | Glossary On
Versions: 1 2 3 4 5 6 7 8 9 10 11 12 13 14 15 16
844
FTUS43 KLMK 220521
TAFLEX
TAF
KLEX 220521Z 2206/2306 15006KT P6SM BKN070
     FM221000 08006KT 5SM BR VCSH SCT010 BKN035
     FM221800 07007KT 3SM -SHRA VCTS BKN010CB
     FM230100 03013G19KT 5SM -SHRA BR BKN010=

USA.gov is the U.S. government's official web portal to all federal, state and local government web resources and services.